Time;durP1;ratioP1;P1;durP2;ratioP2;P2;SDS_P1;SDS_P2;PMS_P1;PMS_P2;Temp;Humidity;BMP_temperature;BMP_pressure;BME280_temperature;BME280_humidity;BME280_pressure;Samples;Min_cycle;Max_cycle;Signal;HPM_P1;HPM_P2
2021/09/25 00:02:37;;;;;;;4.93;4.43;;;11.20;99.90;;;;;;6225807;28;20295;-79
2021/09/25 00:05:40;;;;;;;6.03;4.83;;;11.20;99.90;;;;;;6235195;28;20204;-79
2021/09/25 00:08:42;;;;;;;6.77;5.23;;;11.20;99.90;;;;;;6243870;28;20203;-78
2021/09/25 00:11:45;;;;;;;6.57;5.53;;;11.20;99.90;;;;;;6244230;28;20577;-79
2021/09/25 00:14:47;;;;;;;5.30;4.80;;;11.20;99.90;;;;;;6227023;28;20193;-80
2021/09/25 00:17:50;;;;;;;7.20;5.60;;;11.20;99.90;;;;;;6245334;28;20188;-80
2021/09/25 00:20:52;;;;;;;6.30;5.67;;;11.20;99.90;;;;;;6245133;28;20807;-79
2021/09/25 00:23:54;;;;;;;5.87;5.23;;;11.10;99.90;;;;;;6235160;28;20199;-79
2021/09/25 00:26:57;;;;;;;6.93;6.23;;;11.10;99.90;;;;;;6240399;28;20193;-79
2021/09/25 00:29:59;;;;;;;6.97;6.10;;;11.00;99.90;;;;;;6243864;28;20647;-78
2021/09/25 00:33:02;;;;;;;6.57;5.93;;;11.00;99.90;;;;;;6211437;28;20193;-79
2021/09/25 00:36:04;;;;;;;6.20;5.13;;;11.00;99.90;;;;;;6245423;28;20215;-79
2021/09/25 00:39:07;;;;;;;6.67;4.90;;;11.00;99.90;;;;;;6244004;28;20216;-79
2021/09/25 00:42:09;;;;;;;5.60;4.63;;;11.00;99.90;;;;;;6243926;28;20184;-79
2021/09/25 00:45:13;;;;;;;5.07;4.60;;;11.00;99.90;;;;;;6244085;28;20275;-79
2021/09/25 00:48:16;;;;;;;5.10;4.60;;;11.00;99.90;;;;;;6242945;28;20242;-79
2021/09/25 00:51:18;;;;;;;5.33;4.50;;;11.00;99.90;;;;;;6242802;28;20246;-79
2021/09/25 00:54:20;;;;;;;4.73;4.23;;;11.00;99.90;;;;;;6219610;28;20195;-79
2021/09/25 00:57:23;;;;;;;6.23;4.67;;;11.00;99.90;;;;;;6233755;28;20693;-79
2021/09/25 01:00:26;;;;;;;5.30;4.80;;;11.00;99.90;;;;;;6248298;28;20311;-79
2021/09/25 01:03:28;;;;;;;5.10;4.60;;;11.00;99.90;;;;;;6245029;28;20363;-79
2021/09/25 01:06:31;;;;;;;4.87;4.40;;;11.00;99.90;;;;;;6242503;28;20209;-78
2021/09/25 01:09:34;;;;;;;6.53;4.70;;;11.00;99.90;;;;;;6244324;28;20796;-78
2021/09/25 01:12:36;;;;;;;6.13;4.37;;;10.90;99.90;;;;;;6243065;28;20197;-79
2021/09/25 01:15:39;;;;;;;4.50;4.07;;;10.90;99.90;;;;;;6225586;28;20675;-79
2021/09/25 01:18:41;;;;;;;4.23;3.73;;;10.90;99.90;;;;;;6226297;28;20277;-78
2021/09/25 01:21:44;;;;;;;4.37;3.97;;;10.80;99.90;;;;;;6248423;28;20294;-79
2021/09/25 01:24:46;;;;;;;4.17;3.70;;;10.80;99.90;;;;;;6230873;28;20188;-79
2021/09/25 01:27:49;;;;;;;5.20;4.33;;;10.80;99.90;;;;;;6222394;28;20300;-79
2021/09/25 01:30:51;;;;;;;5.23;4.53;;;10.70;99.90;;;;;;6254410;28;20197;-78
2021/09/25 01:33:53;;;;;;;7.37;4.70;;;10.70;99.90;;;;;;6231642;28;20657;-78
2021/09/25 01:36:55;;;;;;;6.97;4.60;;;10.70;99.90;;;;;;6248349;28;20207;-79
2021/09/25 01:39:58;;;;;;;5.03;4.53;;;10.70;99.90;;;;;;6230168;28;20293;-79
2021/09/25 01:43:00;;;;;;;6.37;4.60;;;10.60;99.90;;;;;;6247550;28;20222;-78
2021/09/25 01:46:02;;;;;;;5.47;3.93;;;10.60;99.90;;;;;;6246720;28;20195;-79
2021/09/25 01:49:06;;;;;;;4.53;3.90;;;10.50;99.90;;;;;;6214400;28;20204;-79
2021/09/25 01:52:08;;;;;;;4.97;3.97;;;10.50;99.90;;;;;;6247338;28;20631;-79
2021/09/25 01:55:11;;;;;;;4.80;4.30;;;10.50;99.90;;;;;;6229676;28;20295;-79
2021/09/25 01:58:13;;;;;;;6.33;4.50;;;10.50;99.90;;;;;;6229725;28;20196;-79
2021/09/25 02:01:16;;;;;;;4.63;4.17;;;10.50;99.90;;;;;;6245402;28;20232;-79
2021/09/25 02:04:19;;;;;;;5.90;4.43;;;10.40;99.90;;;;;;6246059;28;20188;-79
2021/09/25 02:07:21;;;;;;;4.70;4.20;;;10.40;99.90;;;;;;6245994;28;20282;-78
2021/09/25 02:10:23;;;;;;;5.03;4.47;;;10.40;99.90;;;;;;6229043;28;20283;-79
2021/09/25 02:13:27;;;;;;;6.63;4.00;;;10.40;99.90;;;;;;6246693;28;20196;-79
2021/09/25 02:16:29;;;;;;;5.03;4.53;;;10.40;99.90;;;;;;6246504;28;20200;-79
2021/09/25 02:19:31;;;;;;;5.70;4.23;;;10.40;99.90;;;;;;6245958;28;20273;-79
2021/09/25 02:22:35;;;;;;;4.90;4.40;;;10.40;99.90;;;;;;6228748;28;20204;-79
2021/09/25 02:25:38;;;;;;;4.17;3.80;;;10.40;99.90;;;;;;6246349;28;20241;-79
2021/09/25 02:28:40;;;;;;;4.13;3.73;;;10.30;99.90;;;;;;6246135;28;20820;-79
2021/09/25 02:31:43;;;;;;;3.83;3.53;;;10.30;99.90;;;;;;6246849;28;20731;-79
2021/09/25 02:34:45;;;;;;;5.67;3.73;;;10.30;99.90;;;;;;6246583;28;20323;-79
2021/09/25 02:37:49;;;;;;;3.93;3.63;;;10.30;99.90;;;;;;6229567;28;20703;-79
2021/09/25 02:40:52;;;;;;;6.73;4.50;;;10.30;99.90;;;;;;6247659;28;20203;-79
2021/09/25 02:43:54;;;;;;;4.13;3.73;;;10.20;99.90;;;;;;6247537;28;20199;-80
2021/09/25 02:46:57;;;;;;;5.33;4.37;;;10.20;99.90;;;;;;6246488;28;20626;-79
2021/09/25 02:49:59;;;;;;;6.07;5.10;;;10.20;99.90;;;;;;6246111;28;20803;-80
2021/09/25 02:53:02;;;;;;;6.97;5.53;;;10.20;99.90;;;;;;6246130;28;20198;-79
2021/09/25 02:56:04;;;;;;;6.50;5.47;;;10.20;99.90;;;;;;6230044;28;20196;-80
2021/09/25 02:59:07;;;;;;;6.27;5.10;;;10.20;99.90;;;;;;6245925;28;20238;-79
2021/09/25 03:02:19;;;;;;;7.83;4.80;;;10.20;99.90;;;;;;6231639;28;20342;-80
2021/09/25 03:05:22;;;;;;;4.80;4.40;;;10.20;99.90;;;;;;6221599;28;20205;-80
2021/09/25 03:08:24;;;;;;;5.07;4.20;;;10.20;99.90;;;;;;6235347;28;20238;-79
2021/09/25 03:11:26;;;;;;;5.53;4.53;;;10.20;99.90;;;;;;6245630;28;20678;-80
2021/09/25 03:14:29;;;;;;;4.90;4.10;;;10.20;99.90;;;;;;6246991;28;20274;-79
2021/09/25 03:17:31;;;;;;;3.57;3.27;;;10.20;99.90;;;;;;6229125;28;20190;-79
2021/09/25 03:20:33;;;;;;;6.00;4.10;;;10.10;99.90;;;;;;6246168;28;20287;-79
2021/09/25 03:23:36;;;;;;;4.20;3.80;;;10.20;99.90;;;;;;6245617;28;20590;-78
2021/09/25 03:26:38;;;;;;;4.33;3.77;;;10.10;99.90;;;;;;6244341;28;20293;-79
2021/09/25 03:29:41;;;;;;;5.53;4.17;;;10.10;99.90;;;;;;6229867;28;20616;-79
2021/09/25 03:32:45;;;;;;;4.97;3.97;;;10.10;99.90;;;;;;6227276;28;20211;-79
2021/09/25 03:35:48;;;;;;;5.30;4.50;;;10.10;99.90;;;;;;6233644;28;20575;-80
2021/09/25 03:38:51;;;;;;;5.17;4.63;;;10.10;99.90;;;;;;6243304;28;20302;-80
2021/09/25 03:41:53;;;;;;;6.00;5.40;;;10.10;99.90;;;;;;6227850;28;20659;-80
2021/09/25 03:44:56;;;;;;;5.10;4.60;;;10.00;99.90;;;;;;6246108;28;20539;-80
2021/09/25 03:47:59;;;;;;;5.90;4.87;;;10.00;99.90;;;;;;6228459;28;20233;-80
2021/09/25 03:51:01;;;;;;;5.47;4.57;;;10.00;99.90;;;;;;6212229;28;20195;-80
2021/09/25 03:54:04;;;;;;;4.90;4.50;;;10.00;99.90;;;;;;6220254;28;20972;-80
2021/09/25 03:57:07;;;;;;;4.50;4.10;;;10.00;99.90;;;;;;6228397;28;20198;-80
2021/09/25 04:00:10;;;;;;;6.47;4.37;;;10.00;99.90;;;;;;6228144;28;20632;-80
2021/09/25 04:03:13;;;;;;;4.43;4.03;;;10.00;99.90;;;;;;6227058;28;20590;-80
2021/09/25 04:06:16;;;;;;;9.00;4.17;;;9.90;99.90;;;;;;6244457;28;20192;-79
2021/09/25 04:09:24;;;;;;;5.03;4.23;;;9.90;99.90;;;;;;6244809;28;20200;-80
2021/09/25 04:12:26;;;;;;;5.83;4.27;;;9.90;99.90;;;;;;6228127;28;20584;-79
2021/09/25 04:15:29;;;;;;;4.33;3.93;;;9.80;99.90;;;;;;6244375;28;20249;-80
2021/09/25 04:18:32;;;;;;;4.27;3.80;;;9.80;99.90;;;;;;6220003;28;20207;-79
2021/09/25 04:21:34;;;;;;;4.50;4.10;;;9.80;99.90;;;;;;6233054;28;20586;-81
2021/09/25 04:24:36;;;;;;;5.07;4.17;;;9.80;99.90;;;;;;6227675;28;20195;-80
2021/09/25 04:27:39;;;;;;;4.97;3.80;;;9.80;99.90;;;;;;6244416;28;20200;-80
2021/09/25 04:30:41;;;;;;;5.13;4.50;;;9.80;99.90;;;;;;6250943;28;20207;-79
2021/09/25 04:33:44;;;;;;;4.23;3.83;;;9.80;99.90;;;;;;6244165;28;20199;-80
2021/09/25 04:36:47;;;;;;;4.80;4.40;;;9.80;99.90;;;;;;6244428;28;20277;-79
2021/09/25 04:39:49;;;;;;;5.20;3.90;;;9.80;99.90;;;;;;6245396;28;20775;-80
2021/09/25 04:42:52;;;;;;;5.27;3.93;;;9.80;99.90;;;;;;6244237;28;20182;-79
2021/09/25 04:45:54;;;;;;;7.23;4.17;;;9.80;99.90;;;;;;6244337;28;20210;-79
2021/09/25 04:48:56;;;;;;;3.70;3.40;;;9.80;99.90;;;;;;6244700;28;20242;-79
2021/09/25 04:51:59;;;;;;;5.00;3.47;;;9.80;99.90;;;;;;6244583;28;20192;-80
2021/09/25 04:55:01;;;;;;;4.10;3.70;;;9.70;99.90;;;;;;6240306;28;20688;-79
2021/09/25 04:58:04;;;;;;;7.90;3.97;;;9.70;99.90;;;;;;6218759;28;20257;-80
2021/09/25 05:01:07;;;;;;;5.47;3.90;;;9.70;99.90;;;;;;6262590;28;20571;-81
2021/09/25 05:04:10;;;;;;;6.20;4.30;;;9.70;99.90;;;;;;6250410;28;20204;-80
2021/09/25 05:07:12;;;;;;;6.97;4.37;;;9.70;99.90;;;;;;6249982;28;20183;-80
2021/09/25 05:10:15;;;;;;;3.97;3.60;;;9.80;99.90;;;;;;6249816;28;20729;-80
2021/09/25 05:13:17;;;;;;;4.30;3.90;;;9.80;99.90;;;;;;6223838;28;20255;-80
2021/09/25 05:16:20;;;;;;;5.17;4.67;;;9.80;99.90;;;;;;6243274;28;20208;-81
2021/09/25 05:19:23;;;;;;;4.50;3.97;;;9.80;99.90;;;;;;6248871;28;20208;-80
2021/09/25 05:22:25;;;;;;;5.30;4.10;;;9.80;99.90;;;;;;6230811;28;20238;-80
2021/09/25 05:25:28;;;;;;;4.93;3.93;;;9.90;99.90;;;;;;6248030;28;20207;-80
2021/09/25 05:28:30;;;;;;;4.40;4.00;;;9.90;99.90;;;;;;6231500;28;20200;-80
2021/09/25 05:31:32;;;;;;;4.90;4.37;;;10.00;99.90;;;;;;6247660;28;20329;-80
2021/09/25 05:34:35;;;;;;;5.30;4.40;;;10.00;99.90;;;;;;6248687;28;20194;-80
2021/09/25 05:37:37;;;;;;;4.80;4.40;;;10.00;99.90;;;;;;6223851;28;20192;-81
2021/09/25 05:40:39;;;;;;;5.63;5.00;;;10.00;99.90;;;;;;6231599;28;20742;-80
2021/09/25 05:43:42;;;;;;;6.13;4.93;;;10.00;99.90;;;;;;6248018;28;20176;-80
2021/09/25 05:46:44;;;;;;;6.97;4.40;;;10.10;99.90;;;;;;6247494;28;20191;-80
2021/09/25 05:49:47;;;;;;;7.23;4.70;;;10.10;99.90;;;;;;6231246;28;20198;-80
2021/09/25 05:52:49;;;;;;;4.83;4.43;;;10.10;99.90;;;;;;6246683;28;20201;-79
2021/09/25 05:55:52;;;;;;;4.57;4.03;;;10.20;99.90;;;;;;6232172;28;20199;-81
2021/09/25 05:58:54;;;;;;;4.40;4.00;;;10.20;99.90;;;;;;6249168;28;20196;-77
2021/09/25 06:01:56;;;;;;;4.50;4.10;;;10.30;99.90;;;;;;6247307;28;20228;-80
2021/09/25 06:04:59;;;;;;;6.47;4.53;;;10.30;99.90;;;;;;6246988;28;20199;-80
2021/09/25 06:08:03;;;;;;;4.50;4.10;;;10.40;99.90;;;;;;6231649;28;20619;-76
2021/09/25 06:11:05;;;;;;;4.90;4.43;;;10.40;99.90;;;;;;6245801;28;20682;-77
2021/09/25 06:14:08;;;;;;;8.77;4.40;;;10.40;99.90;;;;;;6248094;28;20202;-76
2021/09/25 06:17:10;;;;;;;5.57;5.00;;;10.50;99.90;;;;;;6245800;28;20274;-76
2021/09/25 06:20:13;;;;;;;5.87;3.90;;;10.60;99.90;;;;;;6247807;28;20571;-77
2021/09/25 06:23:15;;;;;;;5.47;4.30;;;10.60;99.90;;;;;;6247251;28;20184;-77
2021/09/25 06:26:17;;;;;;;5.20;4.50;;;10.70;99.90;;;;;;6246084;28;20254;-75
2021/09/25 06:29:20;;;;;;;4.57;4.13;;;10.70;99.90;;;;;;6246628;28;20338;-75
2021/09/25 06:32:22;;;;;;;5.20;4.33;;;10.80;99.90;;;;;;6248026;28;20538;-76
2021/09/25 06:35:26;;;;;;;6.10;4.27;;;10.90;99.90;;;;;;6247784;28;20289;-75
2021/09/25 06:38:28;;;;;;;5.50;4.97;;;10.90;99.90;;;;;;6247228;28;20184;-76
2021/09/25 06:41:30;;;;;;;4.90;4.43;;;11.00;99.90;;;;;;6237271;28;20204;-77
2021/09/25 06:44:35;;;;;;;4.43;4.03;;;11.00;99.90;;;;;;6240681;28;20201;-76
2021/09/25 06:47:38;;;;;;;5.40;4.93;;;11.10;99.90;;;;;;6230872;28;20191;-78
2021/09/25 06:50:40;;;;;;;9.90;5.10;;;11.20;99.90;;;;;;6228490;28;20754;-77
2021/09/25 06:53:42;;;;;;;5.17;4.67;;;11.30;99.90;;;;;;6246220;28;20568;-78
2021/09/25 06:56:45;;;;;;;4.67;4.27;;;11.40;99.90;;;;;;6246509;28;20193;-77
2021/09/25 06:59:47;;;;;;;5.70;4.97;;;11.50;99.90;;;;;;6245099;28;20225;-77
2021/09/25 07:02:49;;;;;;;7.70;4.37;;;11.60;99.90;;;;;;6246081;28;20315;-76
2021/09/25 07:05:52;;;;;;;6.60;4.77;;;11.70;99.90;;;;;;6227849;28;20622;-77
2021/09/25 07:08:55;;;;;;;5.73;4.40;;;11.80;99.90;;;;;;6228065;28;20563;-77
2021/09/25 07:11:57;;;;;;;6.67;4.90;;;11.90;99.90;;;;;;6243127;28;20193;-78
2021/09/25 07:15:00;;;;;;;4.73;4.23;;;12.00;99.90;;;;;;6239675;28;20742;-78
2021/09/25 07:18:02;;;;;;;6.57;5.17;;;12.10;99.90;;;;;;6242066;28;20412;-78
2021/09/25 07:21:05;;;;;;;5.57;4.97;;;12.20;99.90;;;;;;6227803;28;20219;-77
2021/09/25 07:24:07;;;;;;;5.00;4.53;;;12.30;99.90;;;;;;6225889;28;20231;-77
2021/09/25 07:27:10;;;;;;;5.63;4.80;;;12.40;99.90;;;;;;6245347;28;20217;-77
2021/09/25 07:30:12;;;;;;;7.33;4.37;;;12.50;99.90;;;;;;6244513;28;20197;-77
2021/09/25 07:33:16;;;;;;;4.97;4.23;;;12.60;99.90;;;;;;6219333;28;20288;-77
2021/09/25 07:36:18;;;;;;;6.10;5.03;;;12.80;99.90;;;;;;6223609;28;20202;-78
2021/09/25 07:39:21;;;;;;;5.20;4.70;;;13.00;99.90;;;;;;6228612;28;20665;-78
2021/09/25 07:42:24;;;;;;;5.07;4.60;;;13.20;99.90;;;;;;6228741;28;20265;-77
2021/09/25 07:45:27;;;;;;;4.70;4.10;;;13.30;99.90;;;;;;6245931;28;20186;-77
2021/09/25 07:48:29;;;;;;;5.80;4.07;;;13.60;99.90;;;;;;6228557;28;20704;-77
2021/09/25 07:51:32;;;;;;;4.57;4.00;;;13.80;99.90;;;;;;6244521;28;20204;-78
2021/09/25 07:54:34;;;;;;;4.10;3.30;;;14.10;99.90;;;;;;6219966;28;20209;-77
2021/09/25 07:57:38;;;;;;;4.20;3.80;;;14.40;99.90;;;;;;6227754;28;20199;-78
2021/09/25 08:00:41;;;;;;;3.77;3.47;;;14.70;99.90;;;;;;6249214;28;20318;-78
2021/09/25 08:03:44;;;;;;;5.10;3.63;;;15.00;99.90;;;;;;6245702;28;20190;-77
2021/09/25 08:06:46;;;;;;;4.33;3.60;;;15.40;99.90;;;;;;6242383;28;20191;-77
2021/09/25 08:09:49;;;;;;;4.57;3.20;;;15.70;99.90;;;;;;6227086;28;20437;-78
2021/09/25 08:12:51;;;;;;;3.50;3.20;;;16.10;99.90;;;;;;6244849;28;20276;-78
2021/09/25 08:15:53;;;;;;;3.30;2.83;;;16.50;99.90;;;;;;6219255;28;20204;-78
2021/09/25 08:18:56;;;;;;;3.30;3.00;;;16.80;99.90;;;;;;6242963;28;20572;-79
2021/09/25 08:21:59;;;;;;;3.43;2.87;;;17.10;99.90;;;;;;6243901;28;20216;-79
2021/09/25 08:25:02;;;;;;;3.23;2.97;;;17.40;99.90;;;;;;6219594;28;20562;-79
2021/09/25 08:28:04;;;;;;;3.57;2.70;;;17.80;99.90;;;;;;6231662;28;20282;-80
2021/09/25 08:31:07;;;;;;;3.17;2.77;;;18.00;99.90;;;;;;6243028;28;20202;-79
2021/09/25 08:34:09;;;;;;;3.00;2.70;;;18.40;99.90;;;;;;6243406;28;20227;-79
2021/09/25 08:37:13;;;;;;;2.90;2.63;;;18.70;99.90;;;;;;6211087;28;20837;-78
2021/09/25 08:40:21;;;;;;;5.37;2.93;;;19.00;99.90;;;;;;6211346;28;20212;-78
2021/09/25 08:43:24;;;;;;;3.20;3.00;;;19.30;99.90;;;;;;6226642;28;20275;-79
2021/09/25 08:46:27;;;;;;;3.33;2.40;;;19.60;99.90;;;;;;6217797;28;20200;-79
2021/09/25 08:49:29;;;;;;;3.00;2.73;;;19.90;99.90;;;;;;6236586;28;20536;-79
2021/09/25 08:52:33;;;;;;;2.53;2.33;;;20.30;99.90;;;;;;6224330;28;20570;-80
2021/09/25 08:55:35;;;;;;;2.60;2.23;;;20.60;99.90;;;;;;6222481;28;20188;-79
2021/09/25 08:58:38;;;;;;;3.97;2.53;;;20.80;99.90;;;;;;6226238;28;20208;-80
2021/09/25 09:01:43;;;;;;;3.07;2.77;;;21.10;99.90;;;;;;6209516;28;20329;-79
2021/09/25 09:04:54;;;;;;;3.53;2.20;;;21.40;99.90;;;;;;6243536;28;20874;-80
2021/09/25 09:08:01;;;;;;;2.93;2.63;;;21.70;99.90;;;;;;6227162;28;20330;-78
2021/09/25 09:11:05;;;;;;;4.00;2.60;;;22.10;99.90;;;;;;6227417;28;20196;-78
2021/09/25 09:14:12;;;;;;;3.07;2.53;;;22.40;99.90;;;;;;6226760;28;20196;-78
2021/09/25 09:17:30;;;;;;;3.20;2.90;;;22.60;99.90;;;;;;6226325;28;20202;-79
2021/09/25 09:20:35;;;;;;;3.20;2.87;;;22.80;98.70;;;;;;6224875;28;20212;-79
2021/09/25 09:23:40;;;;;;;3.03;2.73;;;23.10;98.60;;;;;;6243417;28;20188;-78
2021/09/25 09:26:43;;;;;;;3.50;2.70;;;23.40;97.00;;;;;;6241766;28;20192;-78
2021/09/25 09:29:45;;;;;;;2.70;2.50;;;23.70;96.70;;;;;;6227027;28;20200;-79
2021/09/25 09:32:48;;;;;;;3.00;2.70;;;23.80;94.80;;;;;;6242842;28;20199;-78
2021/09/25 09:35:50;;;;;;;3.60;2.70;;;24.00;94.00;;;;;;6226864;28;20663;-79
2021/09/25 09:38:56;;;;;;;3.10;2.80;;;24.20;92.50;;;;;;6210215;28;20199;-78
2021/09/25 09:41:59;;;;;;;3.03;2.50;;;24.30;91.30;;;;;;6245253;28;20212;-79
2021/09/25 09:45:02;;;;;;;2.70;2.50;;;24.50;90.50;;;;;;6230840;28;20223;-78
2021/09/25 09:48:09;;;;;;;3.17;2.57;;;24.70;87.80;;;;;;6249655;28;20180;-78
2021/09/25 09:51:12;;;;;;;2.80;2.60;;;24.90;88.50;;;;;;6232201;28;20654;-79
2021/09/25 09:54:27;;;;;;;3.10;2.77;;;25.10;89.50;;;;;;6230682;28;20195;-79
2021/09/25 09:57:29;;;;;;;2.57;2.37;;;25.50;86.50;;;;;;6247083;28;20196;-79
2021/09/25 10:00:36;;;;;;;2.45;2.25;;;25.60;82.90;;;;;;6245404;28;20219;-81
2021/09/25 10:03:39;;;;;;;2.60;2.40;;;25.70;85.10;;;;;;6248348;28;20271;-81
2021/09/25 10:06:43;;;;;;;3.25;2.50;;;25.90;82.80;;;;;;6246917;28;20200;-79
2021/09/25 10:09:45;;;;;;;4.85;2.40;;;26.10;76.90;;;;;;6230313;28;20180;-79
2021/09/25 10:12:48;;;;;;;2.70;2.50;;;26.40;77.60;;;;;;6228944;28;20199;-79
2021/09/25 10:15:51;;;;;;;2.63;2.42;;;26.60;75.30;;;;;;6226997;28;20286;-81
2021/09/25 10:18:55;;;;;;;2.58;2.38;;;26.70;74.70;;;;;;6229529;28;20188;-79
2021/09/25 10:22:18;;;;;;;4.63;3.67;;;26.90;73.40;;;;;;6213503;28;20204;-79
2021/09/25 10:25:21;;;;;;;3.00;2.80;;;26.90;71.50;;;;;;6221302;28;20185;-80
2021/09/25 10:28:28;;;;;;;2.90;2.70;;;27.10;68.80;;;;;;6230567;28;20294;-80
2021/09/25 10:31:31;;;;;;;3.25;2.90;;;27.30;66.10;;;;;;6227668;28;20197;-80
2021/09/25 10:34:33;;;;;;;2.35;2.15;;;27.40;66.50;;;;;;6245551;28;20227;-79
2021/09/25 10:37:38;;;;;;;3.03;2.70;;;27.50;67.70;;;;;;6245157;28;20208;-79
2021/09/25 10:41:18;;;;;;;2.92;2.30;;;27.70;67.40;;;;;;6245382;28;20193;-79
2021/09/25 10:44:30;;;;;;;2.30;2.10;;;27.70;59.50;;;;;;6244746;28;20188;-81
2021/09/25 10:47:34;;;;;;;2.45;2.20;;;27.70;63.40;;;;;;6212437;28;20215;-80
2021/09/25 10:50:50;;;;;;;2.13;1.98;;;28.00;65.10;;;;;;6245415;28;20294;-82
2021/09/25 10:54:03;;;;;;;2.70;2.50;;;28.20;65.60;;;;;;6245822;28;20208;-80
2021/09/25 10:57:15;;;;;;;2.60;2.40;;;28.40;65.40;;;;;;6246263;28;20201;-81
2021/09/25 11:00:22;;;;;;;2.20;2.00;;;28.50;58.30;;;;;;6237986;28;20602;-82
2021/09/25 11:03:43;;;;;;;2.25;2.05;;;28.10;56.20;;;;;;6225714;28;20335;-80
2021/09/25 11:06:52;;;;;;;2.45;1.98;;;28.20;61.30;;;;;;6214543;28;20566;-81
2021/09/25 11:09:54;;;;;;;2.95;2.30;;;28.20;57.90;;;;;;6201367;28;20214;-80
2021/09/25 11:12:57;;;;;;;2.10;1.80;;;28.40;55.90;;;;;;6235870;28;20214;-82
2021/09/25 11:16:03;;;;;;;2.35;2.15;;;28.60;52.90;;;;;;6220267;28;20193;-78
2021/09/25 11:19:09;;;;;;;2.08;1.83;;;28.80;53.30;;;;;;6203831;28;20251;-81
2021/09/25 11:22:14;;;;;;;2.25;2.13;;;29.10;54.90;;;;;;6220547;28;20683;-80
2021/09/25 11:25:18;;;;;;;1.90;1.80;;;29.30;53.10;;;;;;6220343;28;20283;-79
2021/09/25 11:28:22;;;;;;;1.90;1.80;;;29.30;51.50;;;;;;6219606;28;20571;-81
2021/09/25 11:31:24;;;;;;;3.35;2.10;;;29.50;51.50;;;;;;6218819;28;20574;-77
2021/09/25 11:34:30;;;;;;;1.92;1.83;;;29.60;51.00;;;;;;6209834;28;20193;-79
2021/09/25 11:37:34;;;;;;;2.08;1.88;;;29.80;51.90;;;;;;6221131;28;20193;-81
2021/09/25 11:40:49;;;;;;;2.10;1.90;;;30.00;50.50;;;;;;6217229;28;20219;-80
2021/09/25 11:43:57;;;;;;;2.30;2.10;;;30.10;50.60;;;;;;6216633;28;20267;-81
2021/09/25 11:46:59;;;;;;;2.03;1.83;;;30.30;50.50;;;;;;6219531;28;20264;-80
2021/09/25 11:50:30;;;;;;;2.20;2.00;;;30.40;51.30;;;;;;6218292;28;20550;-81
2021/09/25 11:53:33;;;;;;;2.20;2.00;;;30.40;50.30;;;;;;6231715;28;20203;-80
2021/09/25 11:56:36;;;;;;;2.55;2.10;;;30.50;50.10;;;;;;6201861;28;20229;-81
2021/09/25 11:59:39;;;;;;;2.33;2.13;;;30.70;50.50;;;;;;6219451;28;20220;-80
2021/09/25 12:02:43;;;;;;;3.22;1.98;;;30.80;49.30;;;;;;6227198;28;20232;-81
2021/09/25 12:05:50;;;;;;;1.70;1.60;;;30.80;49.10;;;;;;6219804;28;20184;-81
2021/09/25 12:08:53;;;;;;;1.77;1.67;;;30.90;47.60;;;;;;6210546;28;20217;-81
2021/09/25 12:11:55;;;;;;;2.10;1.90;;;31.00;46.00;;;;;;6221231;28;20204;-81
2021/09/25 12:14:58;;;;;;;2.55;1.65;;;31.10;46.50;;;;;;6235988;28;20200;-79
2021/09/25 12:18:07;;;;;;;2.08;1.98;;;31.20;46.60;;;;;;6218626;28;20283;-80
2021/09/25 12:21:18;;;;;;;1.88;1.77;;;31.20;46.80;;;;;;6202617;28;20577;-80
2021/09/25 12:24:20;;;;;;;2.38;2.17;;;31.30;46.30;;;;;;6203060;28;20657;-79
2021/09/25 12:27:28;;;;;;;2.15;1.95;;;31.30;46.00;;;;;;6219326;28;20485;-79
2021/09/25 12:30:31;;;;;;;2.17;1.98;;;31.30;44.40;;;;;;6219772;28;20288;-80
2021/09/25 12:33:35;;;;;;;2.53;1.65;;;31.40;43.90;;;;;;6211462;28;20676;-80
2021/09/25 12:36:43;;;;;;;2.35;1.98;;;31.40;45.90;;;;;;6195319;28;20610;-80
2021/09/25 12:39:47;;;;;;;3.28;2.00;;;31.40;44.70;;;;;;6203973;28;20207;-80
2021/09/25 12:42:51;;;;;;;1.63;1.52;;;31.60;44.40;;;;;;6189970;28;20220;-81
2021/09/25 12:46:11;;;;;;;1.80;1.70;;;31.80;43.70;;;;;;6194569;28;20192;-80
2021/09/25 12:49:22;;;;;;;2.10;1.88;;;31.80;46.50;;;;;;6216126;28;20216;-80
2021/09/25 12:52:28;;;;;;;1.70;1.60;;;31.80;46.90;;;;;;6219340;28;20185;-81
2021/09/25 12:55:30;;;;;;;1.52;1.42;;;31.90;46.80;;;;;;6218475;28;20199;-81
2021/09/25 12:58:32;;;;;;;1.70;1.60;;;32.10;44.50;;;;;;6218149;28;20275;-81
2021/09/25 13:01:35;;;;;;;1.73;1.63;;;32.30;42.90;;;;;;6209082;28;20232;-80
2021/09/25 13:04:41;;;;;;;3.72;1.73;;;32.30;46.60;;;;;;6212509;28;20648;-80
2021/09/25 13:07:44;;;;;;;1.65;1.55;;;32.30;47.20;;;;;;6201847;28;20244;-81
2021/09/25 13:10:48;;;;;;;4.13;1.75;;;32.50;47.00;;;;;;6233470;28;20200;-80
2021/09/25 13:14:12;;;;;;;1.92;1.80;;;32.70;45.60;;;;;;6202318;28;20263;-81
2021/09/25 13:17:14;;;;;;;3.53;2.10;;;33.00;44.70;;;;;;6206760;28;20565;-80
2021/09/25 13:20:20;;;;;;;2.40;1.58;;;33.40;44.40;;;;;;6223465;28;20188;-81
2021/09/25 13:23:24;;;;;;;2.00;1.90;;;33.60;42.30;;;;;;6223234;28;20221;-81
2021/09/25 13:26:27;;;;;;;1.70;1.60;;;33.80;41.20;;;;;;6222954;28;20679;-79
2021/09/25 13:29:29;;;;;;;1.67;1.58;;;34.00;39.80;;;;;;6222806;28;20204;-79
2021/09/25 13:32:32;;;;;;;3.13;1.60;;;34.40;41.60;;;;;;6230766;28;20251;-79
2021/09/25 13:35:35;;;;;;;5.15;1.83;;;34.60;42.30;;;;;;6204151;28;20201;-79
2021/09/25 13:38:38;;;;;;;2.10;1.90;;;34.60;43.10;;;;;;6201448;28;20242;-79
2021/09/25 13:41:40;;;;;;;4.18;1.90;;;34.60;44.80;;;;;;6219266;28;20262;-79
2021/09/25 13:44:42;;;;;;;2.80;1.90;;;34.60;43.60;;;;;;6219539;28;20275;-79
2021/09/25 13:47:45;;;;;;;2.38;2.17;;;34.70;42.80;;;;;;6204770;28;20201;-79
2021/09/25 13:50:47;;;;;;;2.13;1.90;;;34.80;42.90;;;;;;6220865;28;20359;-78
2021/09/25 13:53:50;;;;;;;2.05;1.60;;;34.50;44.80;;;;;;6235992;28;20865;-79
2021/09/25 13:56:52;;;;;;;3.50;1.70;;;33.60;45.70;;;;;;6228524;28;20209;-79
2021/09/25 13:59:54;;;;;;;4.30;2.00;;;32.60;46.80;;;;;;6216396;28;20339;-79
2021/09/25 14:02:58;;;;;;;3.03;2.00;;;31.60;47.60;;;;;;6216963;28;20327;-78
2021/09/25 14:06:01;;;;;;;2.03;1.90;;;30.70;50.00;;;;;;6207016;28;20189;-79
2021/09/25 14:09:04;;;;;;;2.42;1.92;;;29.80;52.10;;;;;;6220381;28;20276;-78
2021/09/25 14:12:09;;;;;;;2.67;2.10;;;29.20;52.90;;;;;;6222645;28;20197;-78
2021/09/25 14:15:11;;;;;;;2.00;1.90;;;28.80;51.90;;;;;;6221589;28;20185;-79
2021/09/25 14:18:14;;;;;;;2.63;1.80;;;28.40;53.50;;;;;;6222525;28;20196;-78
2021/09/25 14:21:18;;;;;;;3.60;2.13;;;27.70;55.60;;;;;;6222077;28;20216;-78
2021/09/25 14:24:20;;;;;;;2.25;1.80;;;27.00;57.10;;;;;;6222122;28;20204;-78
2021/09/25 14:27:23;;;;;;;2.80;1.90;;;26.50;57.80;;;;;;6205775;28;20346;-78
2021/09/25 14:30:25;;;;;;;2.00;1.90;;;26.10;59.10;;;;;;6240102;28;20575;-78
2021/09/25 14:33:28;;;;;;;3.92;2.08;;;25.60;60.50;;;;;;6222434;28;20558;-78
2021/09/25 14:36:32;;;;;;;3.50;2.00;;;25.10;61.10;;;;;;6219349;28;20599;-78
2021/09/25 14:39:35;;;;;;;3.40;1.90;;;24.70;64.20;;;;;;6220312;28;20292;-78
2021/09/25 14:42:38;;;;;;;2.13;1.90;;;24.50;65.70;;;;;;6220301;28;20562;-78
2021/09/25 14:45:40;;;;;;;2.20;2.00;;;24.30;66.50;;;;;;6219689;28;20192;-78
2021/09/25 14:48:42;;;;;;;3.13;1.80;;;24.20;67.80;;;;;;6219400;28;20208;-78
2021/09/25 14:51:44;;;;;;;3.00;1.73;;;23.90;69.30;;;;;;6219560;28;20205;-78
2021/09/25 14:54:47;;;;;;;2.22;2.03;;;23.60;70.90;;;;;;6210159;28;20197;-78
2021/09/25 14:57:50;;;;;;;2.40;2.20;;;23.40;72.10;;;;;;6214960;28;20197;-79
2021/09/25 15:00:53;;;;;;;4.03;2.22;;;23.20;73.50;;;;;;6243785;28;20745;-81
2021/09/25 15:03:55;;;;;;;3.30;2.10;;;22.80;75.20;;;;;;6226465;28;20357;-78
2021/09/25 15:06:58;;;;;;;3.00;2.30;;;22.60;76.80;;;;;;6228188;28;20210;-79
2021/09/25 15:10:00;;;;;;;4.97;4.50;;;22.40;78.20;;;;;;6229185;28;20286;-78
2021/09/25 15:13:02;;;;;;;3.63;2.60;;;22.20;79.90;;;;;;6237136;28;20258;-78
2021/09/25 15:16:05;;;;;;;3.30;2.80;;;21.90;81.40;;;;;;6241455;28;20200;-77
2021/09/25 15:19:07;;;;;;;4.17;2.30;;;21.70;83.10;;;;;;6246349;28;20287;-78
2021/09/25 15:22:10;;;;;;;2.17;1.87;;;21.50;84.30;;;;;;6244630;28;20222;-76
2021/09/25 15:25:12;;;;;;;2.87;2.33;;;21.40;86.20;;;;;;6228823;28;20188;-76
2021/09/25 15:28:14;;;;;;;5.07;2.40;;;21.10;87.40;;;;;;6246402;28;20567;-77
2021/09/25 15:31:20;;;;;;;4.73;2.30;;;20.90;89.20;;;;;;6223096;28;20655;-76
2021/09/25 15:34:23;;;;;;;2.40;2.20;;;20.70;90.40;;;;;;6245056;28;20323;-77
2021/09/25 15:37:27;;;;;;;3.60;2.73;;;20.60;91.60;;;;;;6243590;28;20195;-77
2021/09/25 15:40:29;;;;;;;3.17;2.47;;;20.40;92.00;;;;;;6244095;28;20203;-77
2021/09/25 15:43:32;;;;;;;2.40;2.20;;;20.30;93.00;;;;;;6243994;28;20211;-77
2021/09/25 15:46:34;;;;;;;4.70;2.30;;;20.20;93.60;;;;;;6226990;28;20546;-76
2021/09/25 15:49:36;;;;;;;2.17;2.07;;;20.10;94.00;;;;;;6245722;28;20202;-76
2021/09/25 15:52:39;;;;;;;2.40;2.10;;;20.10;94.90;;;;;;6228130;28;20278;-76
2021/09/25 15:55:41;;;;;;;3.57;2.70;;;19.90;95.90;;;;;;6244316;28;20187;-77
2021/09/25 15:58:43;;;;;;;3.70;2.10;;;19.80;96.30;;;;;;6245920;28;20216;-77